Providence, Rhode Island
Traffic Map
Current Weather Conditions
Providence, Rhode Island
Clear
Clear

Feels Like: 4°
Wind Chill: Ceiling: Unl
Heat Index: Visibility: 10mi
Dew Point: -9° Wind: 10mph
Humidity: 30% Direction: 330° (NNW)
Pressure: 30.42in Gusts: 0mph
Raw Report DataKPVD 162151Z 33009KT 10SM CLR 07/M09 A3042 RMK AO2 PK WND 34031/2111 SLP301 T00721094
Traffic Incident Summary
Active as of:
Severity:
Category:
InformationThere was an issue retrieving the traffic information for this location. Please try a different location or try again shortly.
Advertisements
At Last! Intellicast now available for iPhone and Android